sensor_id;sensor_type;location;lat;lon;timestamp;temperature;humidity
6752;DHT22;3413;47.680;9.166;2023-02-28T00:00:39;3.30;85.40
6752;DHT22;3413;47.680;9.166;2023-02-28T00:05:41;3.30;85.50
6752;DHT22;3413;47.680;9.166;2023-02-28T00:10:43;3.30;85.40
6752;DHT22;3413;47.680;9.166;2023-02-28T00:15:45;3.20;85.40
6752;DHT22;3413;47.680;9.166;2023-02-28T00:20:47;3.30;85.40
6752;DHT22;3413;47.680;9.166;2023-02-28T00:25:50;3.20;85.40
6752;DHT22;3413;47.680;9.166;2023-02-28T00:30:52;3.20;85.50
6752;DHT22;3413;47.680;9.166;2023-02-28T00:36:05;3.20;85.40
6752;DHT22;3413;47.680;9.166;2023-02-28T00:41:10;3.20;85.50
6752;DHT22;3413;47.680;9.166;2023-02-28T00:46:12;3.20;85.40
6752;DHT22;3413;47.680;9.166;2023-02-28T00:51:14;3.20;85.50
6752;DHT22;3413;47.680;9.166;2023-02-28T00:56:16;3.20;85.50
6752;DHT22;3413;47.680;9.166;2023-02-28T01:01:18;3.20;85.40
6752;DHT22;3413;47.680;9.166;2023-02-28T01:06:19;3.20;85.60
6752;DHT22;3413;47.680;9.166;2023-02-28T01:11:21;3.20;85.50
6752;DHT22;3413;47.680;9.166;2023-02-28T01:16:24;3.30;85.60
6752;DHT22;3413;47.680;9.166;2023-02-28T01:21:26;3.30;85.70
6752;DHT22;3413;47.680;9.166;2023-02-28T01:26:29;3.40;85.70
6752;DHT22;3413;47.680;9.166;2023-02-28T01:31:31;3.30;85.60
6752;DHT22;3413;47.680;9.166;2023-02-28T01:36:33;3.30;85.70
6752;DHT22;3413;47.680;9.166;2023-02-28T01:41:35;3.30;86.30
6752;DHT22;3413;47.680;9.166;2023-02-28T01:46:37;3.30;85.70
6752;DHT22;3413;47.680;9.166;2023-02-28T01:51:42;3.30;85.70
6752;DHT22;3413;47.680;9.166;2023-02-28T01:57:05;3.40;85.70
6752;DHT22;3413;47.680;9.166;2023-02-28T02:02:10;3.40;85.80
6752;DHT22;3413;47.680;9.166;2023-02-28T02:07:13;3.40;85.90
6752;DHT22;3413;47.680;9.166;2023-02-28T02:17:46;3.40;85.80
6752;DHT22;3413;47.680;9.166;2023-02-28T02:44:43;3.40;86.00
6752;DHT22;3413;47.680;9.166;2023-02-28T02:49:51;3.40;86.60
6752;DHT22;3413;47.680;9.166;2023-02-28T02:54:55;3.50;86.00
6752;DHT22;3413;47.680;9.166;2023-02-28T02:59:59;3.50;86.00
6752;DHT22;3413;47.680;9.166;2023-02-28T03:05:06;3.50;86.00
6752;DHT22;3413;47.680;9.166;2023-02-28T03:16:01;3.50;85.90
6752;DHT22;3413;47.680;9.166;2023-02-28T03:26:22;3.40;85.80
6752;DHT22;3413;47.680;9.166;2023-02-28T03:31:35;3.40;85.80
6752;DHT22;3413;47.680;9.166;2023-02-28T03:36:42;3.40;85.80
6752;DHT22;3413;47.680;9.166;2023-02-28T03:42:16;3.40;86.50
6752;DHT22;3413;47.680;9.166;2023-02-28T03:47:32;3.40;85.80
6752;DHT22;3413;47.680;9.166;2023-02-28T03:52:41;3.30;85.70
6752;DHT22;3413;47.680;9.166;2023-02-28T03:58:07;3.30;85.80
6752;DHT22;3413;47.680;9.166;2023-02-28T04:03:13;3.40;85.80
6752;DHT22;3413;47.680;9.166;2023-02-28T04:08:15;3.30;85.60
6752;DHT22;3413;47.680;9.166;2023-02-28T04:13:16;3.30;85.60
6752;DHT22;3413;47.680;9.166;2023-02-28T04:18:18;3.30;85.60
6752;DHT22;3413;47.680;9.166;2023-02-28T04:23:20;3.30;85.60
6752;DHT22;3413;47.680;9.166;2023-02-28T04:28:22;3.30;85.70
6752;DHT22;3413;47.680;9.166;2023-02-28T04:33:24;3.30;85.70
6752;DHT22;3413;47.680;9.166;2023-02-28T04:38:26;3.40;85.70
6752;DHT22;3413;47.680;9.166;2023-02-28T04:43:29;3.40;85.70
6752;DHT22;3413;47.680;9.166;2023-02-28T04:48:34;3.50;85.90
6752;DHT22;3413;47.680;9.166;2023-02-28T04:53:37;3.40;85.80
6752;DHT22;3413;47.680;9.166;2023-02-28T04:58:40;3.50;85.90
6752;DHT22;3413;47.680;9.166;2023-02-28T05:03:43;3.50;85.80
6752;DHT22;3413;47.680;9.166;2023-02-28T05:08:45;3.40;85.70
6752;DHT22;3413;47.680;9.166;2023-02-28T05:13:48;3.40;85.70
6752;DHT22;3413;47.680;9.166;2023-02-28T05:18:50;3.30;86.30
6752;DHT22;3413;47.680;9.166;2023-02-28T05:23:53;3.30;85.60
6752;DHT22;3413;47.680;9.166;2023-02-28T05:28:56;3.30;85.60
6752;DHT22;3413;47.680;9.166;2023-02-28T05:33:58;3.30;85.60
6752;DHT22;3413;47.680;9.166;2023-02-28T05:39:00;3.30;85.50
6752;DHT22;3413;47.680;9.166;2023-02-28T05:44:02;3.30;85.60
6752;DHT22;3413;47.680;9.166;2023-02-28T05:49:04;3.40;85.60
6752;DHT22;3413;47.680;9.166;2023-02-28T05:54:06;3.40;85.60
6752;DHT22;3413;47.680;9.166;2023-02-28T05:59:08;3.30;85.50
6752;DHT22;3413;47.680;9.166;2023-02-28T06:04:10;3.30;85.60
6752;DHT22;3413;47.680;9.166;2023-02-28T06:09:26;3.40;85.70
6752;DHT22;3413;47.680;9.166;2023-02-28T06:14:28;3.40;85.60
6752;DHT22;3413;47.680;9.166;2023-02-28T06:19:30;3.30;85.40
6752;DHT22;3413;47.680;9.166;2023-02-28T06:24:32;3.30;85.50
6752;DHT22;3413;47.680;9.166;2023-02-28T06:29:35;3.30;85.60
6752;DHT22;3413;47.680;9.166;2023-02-28T06:34:37;3.30;85.60
6752;DHT22;3413;47.680;9.166;2023-02-28T06:39:39;3.40;85.70
6752;DHT22;3413;47.680;9.166;2023-02-28T06:44:41;3.40;85.70
6752;DHT22;3413;47.680;9.166;2023-02-28T06:49:44;3.50;85.90
6752;DHT22;3413;47.680;9.166;2023-02-28T06:54:46;3.60;85.90
6752;DHT22;3413;47.680;9.166;2023-02-28T06:59:49;3.60;85.90
6752;DHT22;3413;47.680;9.166;2023-02-28T07:04:51;3.60;85.90
6752;DHT22;3413;47.680;9.166;2023-02-28T07:09:53;3.60;85.90
6752;DHT22;3413;47.680;9.166;2023-02-28T07:14:55;3.60;85.90
6752;DHT22;3413;47.680;9.166;2023-02-28T07:19:57;3.50;85.80
6752;DHT22;3413;47.680;9.166;2023-02-28T07:24:59;3.50;85.90
6752;DHT22;3413;47.680;9.166;2023-02-28T07:30:01;3.50;85.90
6752;DHT22;3413;47.680;9.166;2023-02-28T07:35:05;3.50;85.90
6752;DHT22;3413;47.680;9.166;2023-02-28T07:40:09;3.50;85.80
6752;DHT22;3413;47.680;9.166;2023-02-28T07:45:15;3.50;85.80
6752;DHT22;3413;47.680;9.166;2023-02-28T07:50:17;3.50;85.70
6752;DHT22;3413;47.680;9.166;2023-02-28T07:55:19;3.50;86.40
6752;DHT22;3413;47.680;9.166;2023-02-28T08:00:21;3.40;85.70
6752;DHT22;3413;47.680;9.166;2023-02-28T08:05:23;3.40;85.70
6752;DHT22;3413;47.680;9.166;2023-02-28T08:10:25;3.40;85.70
6752;DHT22;3413;47.680;9.166;2023-02-28T08:15:27;3.30;85.60
6752;DHT22;3413;47.680;9.166;2023-02-28T08:20:29;3.30;85.60
6752;DHT22;3413;47.680;9.166;2023-02-28T08:25:32;3.40;85.80
6752;DHT22;3413;47.680;9.166;2023-02-28T08:30:34;3.40;85.70
6752;DHT22;3413;47.680;9.166;2023-02-28T08:35:36;3.40;85.70
6752;DHT22;3413;47.680;9.166;2023-02-28T08:40:39;3.40;85.70
6752;DHT22;3413;47.680;9.166;2023-02-28T08:45:40;3.40;86.30
6752;DHT22;3413;47.680;9.166;2023-02-28T08:50:42;3.50;85.80
6752;DHT22;3413;47.680;9.166;2023-02-28T08:56:08;3.50;85.90
6752;DHT22;3413;47.680;9.166;2023-02-28T09:01:13;3.60;86.00
6752;DHT22;3413;47.680;9.166;2023-02-28T09:06:16;3.60;85.90
6752;DHT22;3413;47.680;9.166;2023-02-28T09:11:18;3.60;86.00
6752;DHT22;3413;47.680;9.166;2023-02-28T09:16:21;3.60;86.00
6752;DHT22;3413;47.680;9.166;2023-02-28T09:21:23;3.60;86.60
6752;DHT22;3413;47.680;9.166;2023-02-28T09:26:27;3.70;86.10
6752;DHT22;3413;47.680;9.166;2023-02-28T09:31:43;3.70;86.00
6752;DHT22;3413;47.680;9.166;2023-02-28T09:36:45;3.70;86.00
6752;DHT22;3413;47.680;9.166;2023-02-28T09:41:52;3.70;86.00
6752;DHT22;3413;47.680;9.166;2023-02-28T09:46:59;3.70;86.10
6752;DHT22;3413;47.680;9.166;2023-02-28T09:52:05;3.80;86.20
6752;DHT22;3413;47.680;9.166;2023-02-28T10:02:52;3.90;86.20
6752;DHT22;3413;47.680;9.166;2023-02-28T10:08:05;4.00;86.40
6752;DHT22;3413;47.680;9.166;2023-02-28T10:13:32;4.00;86.40
6752;DHT22;3413;47.680;9.166;2023-02-28T10:29:35;4.10;86.70
6752;DHT22;3413;47.680;9.166;2023-02-28T10:34:37;4.10;86.70
6752;DHT22;3413;47.680;9.166;2023-02-28T10:39:44;4.20;86.70
6752;DHT22;3413;47.680;9.166;2023-02-28T10:44:49;4.30;86.90
6752;DHT22;3413;47.680;9.166;2023-02-28T10:50:04;4.30;87.00
6752;DHT22;3413;47.680;9.166;2023-02-28T10:55:23;4.40;87.10
6752;DHT22;3413;47.680;9.166;2023-02-28T11:00:33;4.50;87.10
6752;DHT22;3413;47.680;9.166;2023-02-28T11:05:36;4.40;87.70
6752;DHT22;3413;47.680;9.166;2023-02-28T11:10:38;4.40;87.10
6752;DHT22;3413;47.680;9.166;2023-02-28T11:15:40;4.50;87.20
6752;DHT22;3413;47.680;9.166;2023-02-28T11:20:49;4.60;87.30
6752;DHT22;3413;47.680;9.166;2023-02-28T11:25:55;4.80;87.50
6752;DHT22;3413;47.680;9.166;2023-02-28T11:36:15;4.80;87.40
6752;DHT22;3413;47.680;9.166;2023-02-28T11:47:17;5.00;87.60
6752;DHT22;3413;47.680;9.166;2023-02-28T12:30:24;5.10;87.60
6752;DHT22;3413;47.680;9.166;2023-02-28T12:35:33;5.20;87.80
6752;DHT22;3413;47.680;9.166;2023-02-28T12:40:53;5.20;88.40
6752;DHT22;3413;47.680;9.166;2023-02-28T12:46:00;5.30;87.90
6752;DHT22;3413;47.680;9.166;2023-02-28T12:51:06;5.30;87.90
6752;DHT22;3413;47.680;9.166;2023-02-28T12:56:17;5.30;88.10
6752;DHT22;3413;47.680;9.166;2023-02-28T13:11:50;5.50;88.10
6752;DHT22;3413;47.680;9.166;2023-02-28T13:22:21;5.40;88.00
6752;DHT22;3413;47.680;9.166;2023-02-28T13:27:41;5.50;88.10
6752;DHT22;3413;47.680;9.166;2023-02-28T13:32:44;5.50;88.00
6752;DHT22;3413;47.680;9.166;2023-02-28T13:37:47;5.50;87.90
6752;DHT22;3413;47.680;9.166;2023-02-28T13:42:51;5.50;88.00
6752;DHT22;3413;47.680;9.166;2023-02-28T13:48:05;5.50;88.00
6752;DHT22;3413;47.680;9.166;2023-02-28T13:53:26;5.50;88.00
6752;DHT22;3413;47.680;9.166;2023-02-28T14:04:01;5.60;88.00
6752;DHT22;3413;47.680;9.166;2023-02-28T14:09:33;5.60;88.10
6752;DHT22;3413;47.680;9.166;2023-02-28T14:19:39;5.70;88.30
6752;DHT22;3413;47.680;9.166;2023-02-28T14:40:28;5.60;88.00
6752;DHT22;3413;47.680;9.166;2023-02-28T14:45:33;5.50;88.00
6752;DHT22;3413;47.680;9.166;2023-02-28T14:50:37;5.50;87.90
6752;DHT22;3413;47.680;9.166;2023-02-28T14:55:44;5.50;87.80
6752;DHT22;3413;47.680;9.166;2023-02-28T15:00:49;5.40;87.70
6752;DHT22;3413;47.680;9.166;2023-02-28T15:05:54;5.40;87.60
6752;DHT22;3413;47.680;9.166;2023-02-28T15:10:59;5.40;87.60
6752;DHT22;3413;47.680;9.166;2023-02-28T15:16:04;5.40;87.60
6752;DHT22;3413;47.680;9.166;2023-02-28T15:21:13;5.40;87.60
6752;DHT22;3413;47.680;9.166;2023-02-28T15:26:29;5.40;87.60
6752;DHT22;3413;47.680;9.166;2023-02-28T15:31:41;5.40;87.80
6752;DHT22;3413;47.680;9.166;2023-02-28T15:36:57;5.50;88.20
6752;DHT22;3413;47.680;9.166;2023-02-28T15:42:20;5.70;88.50
6752;DHT22;3413;47.680;9.166;2023-02-28T15:47:25;5.80;88.70
6752;DHT22;3413;47.680;9.166;2023-02-28T15:52:38;5.90;88.30
6752;DHT22;3413;47.680;9.166;2023-02-28T15:57:42;6.00;88.80
6752;DHT22;3413;47.680;9.166;2023-02-28T16:02:44;6.00;88.70
6752;DHT22;3413;47.680;9.166;2023-02-28T16:07:46;6.00;88.80
6752;DHT22;3413;47.680;9.166;2023-02-28T16:12:50;6.10;88.70
6752;DHT22;3413;47.680;9.166;2023-02-28T16:17:55;6.10;88.60
6752;DHT22;3413;47.680;9.166;2023-02-28T16:22:57;6.00;88.50
6752;DHT22;3413;47.680;9.166;2023-02-28T16:28:03;6.00;88.50
6752;DHT22;3413;47.680;9.166;2023-02-28T16:33:08;6.00;88.30
6752;DHT22;3413;47.680;9.166;2023-02-28T16:38:10;6.00;88.40
6752;DHT22;3413;47.680;9.166;2023-02-28T16:43:23;6.00;88.40
6752;DHT22;3413;47.680;9.166;2023-02-28T16:48:26;6.00;88.30
6752;DHT22;3413;47.680;9.166;2023-02-28T16:53:28;6.00;88.20
6752;DHT22;3413;47.680;9.166;2023-02-28T16:58:30;5.90;88.00
6752;DHT22;3413;47.680;9.166;2023-02-28T17:03:32;5.90;87.80
6752;DHT22;3413;47.680;9.166;2023-02-28T17:08:35;5.70;87.60
6752;DHT22;3413;47.680;9.166;2023-02-28T17:13:36;5.60;87.60
6752;DHT22;3413;47.680;9.166;2023-02-28T17:18:38;5.60;87.60
6752;DHT22;3413;47.680;9.166;2023-02-28T17:23:40;5.50;87.40
6752;DHT22;3413;47.680;9.166;2023-02-28T17:28:42;5.40;87.30
6752;DHT22;3413;47.680;9.166;2023-02-28T17:33:44;5.40;87.30
6752;DHT22;3413;47.680;9.166;2023-02-28T17:38:46;5.40;87.30
6752;DHT22;3413;47.680;9.166;2023-02-28T17:43:49;5.40;87.30
6752;DHT22;3413;47.680;9.166;2023-02-28T17:48:53;5.40;87.30
6752;DHT22;3413;47.680;9.166;2023-02-28T17:53:55;5.40;87.30
6752;DHT22;3413;47.680;9.166;2023-02-28T17:58:57;5.30;87.10
6752;DHT22;3413;47.680;9.166;2023-02-28T18:03:59;5.30;87.10
6752;DHT22;3413;47.680;9.166;2023-02-28T18:09:01;5.30;87.20
6752;DHT22;3413;47.680;9.166;2023-02-28T18:14:03;5.20;86.90
6752;DHT22;3413;47.680;9.166;2023-02-28T18:19:05;5.10;86.80
6752;DHT22;3413;47.680;9.166;2023-02-28T18:24:08;5.00;86.80
6752;DHT22;3413;47.680;9.166;2023-02-28T18:29:22;4.90;86.70
6752;DHT22;3413;47.680;9.166;2023-02-28T18:34:25;4.80;86.60
6752;DHT22;3413;47.680;9.166;2023-02-28T18:39:27;4.70;86.60
6752;DHT22;3413;47.680;9.166;2023-02-28T18:44:30;4.70;86.60
6752;DHT22;3413;47.680;9.166;2023-02-28T18:49:33;4.70;87.20
6752;DHT22;3413;47.680;9.166;2023-02-28T18:54:36;4.80;86.60
6752;DHT22;3413;47.680;9.166;2023-02-28T18:59:38;4.80;86.60
6752;DHT22;3413;47.680;9.166;2023-02-28T19:04:40;4.80;86.50
6752;DHT22;3413;47.680;9.166;2023-02-28T19:09:42;4.70;86.50
6752;DHT22;3413;47.680;9.166;2023-02-28T19:14:44;4.70;86.40
6752;DHT22;3413;47.680;9.166;2023-02-28T19:19:47;4.60;86.50
6752;DHT22;3413;47.680;9.166;2023-02-28T19:24:50;4.60;86.40
6752;DHT22;3413;47.680;9.166;2023-02-28T19:29:52;4.70;86.60
6752;DHT22;3413;47.680;9.166;2023-02-28T19:34:54;4.70;86.40
6752;DHT22;3413;47.680;9.166;2023-02-28T19:39:55;4.70;86.50
6752;DHT22;3413;47.680;9.166;2023-02-28T19:44:58;4.70;86.50
6752;DHT22;3413;47.680;9.166;2023-02-28T19:50:00;4.60;86.40
6752;DHT22;3413;47.680;9.166;2023-02-28T19:55:02;4.60;86.40
6752;DHT22;3413;47.680;9.166;2023-02-28T20:00:05;4.50;86.30
6752;DHT22;3413;47.680;9.166;2023-02-28T20:05:13;4.40;86.30
6752;DHT22;3413;47.680;9.166;2023-02-28T20:10:14;4.40;86.40
6752;DHT22;3413;47.680;9.166;2023-02-28T20:15:17;4.40;86.30
6752;DHT22;3413;47.680;9.166;2023-02-28T20:20:19;4.50;86.40
6752;DHT22;3413;47.680;9.166;2023-02-28T20:25:21;4.50;86.90
6752;DHT22;3413;47.680;9.166;2023-02-28T20:30:23;4.40;86.30
6752;DHT22;3413;47.680;9.166;2023-02-28T20:35:25;4.40;86.40
6752;DHT22;3413;47.680;9.166;2023-02-28T20:40:27;4.50;86.50
6752;DHT22;3413;47.680;9.166;2023-02-28T20:45:29;4.40;86.30
6752;DHT22;3413;47.680;9.166;2023-02-28T20:50:32;4.40;86.40
6752;DHT22;3413;47.680;9.166;2023-02-28T20:55:33;4.40;86.50
6752;DHT22;3413;47.680;9.166;2023-02-28T21:00:35;4.40;86.50
6752;DHT22;3413;47.680;9.166;2023-02-28T21:05:38;4.40;86.60
6752;DHT22;3413;47.680;9.166;2023-02-28T21:10:40;4.40;86.60
6752;DHT22;3413;47.680;9.166;2023-02-28T21:15:42;4.40;86.60
6752;DHT22;3413;47.680;9.166;2023-02-28T21:20:44;4.40;86.70
6752;DHT22;3413;47.680;9.166;2023-02-28T21:25:46;4.50;86.70
6752;DHT22;3413;47.680;9.166;2023-02-28T21:30:48;4.50;86.70
6752;DHT22;3413;47.680;9.166;2023-02-28T21:35:50;4.50;86.80
6752;DHT22;3413;47.680;9.166;2023-02-28T21:40:53;4.50;86.80
6752;DHT22;3413;47.680;9.166;2023-02-28T21:45:55;4.50;86.90
6752;DHT22;3413;47.680;9.166;2023-02-28T21:50:59;4.50;86.90
6752;DHT22;3413;47.680;9.166;2023-02-28T21:56:05;4.50;87.00
6752;DHT22;3413;47.680;9.166;2023-02-28T22:06:21;4.50;86.90
6752;DHT22;3413;47.680;9.166;2023-02-28T22:11:24;4.50;86.90
6752;DHT22;3413;47.680;9.166;2023-02-28T22:16:28;4.50;86.90
6752;DHT22;3413;47.680;9.166;2023-02-28T22:21:37;4.50;87.00
6752;DHT22;3413;47.680;9.166;2023-02-28T22:26:39;4.60;87.10
6752;DHT22;3413;47.680;9.166;2023-02-28T22:31:41;4.60;86.90
6752;DHT22;3413;47.680;9.166;2023-02-28T22:36:43;4.60;87.10
6752;DHT22;3413;47.680;9.166;2023-02-28T22:41:45;4.60;87.10
6752;DHT22;3413;47.680;9.166;2023-02-28T22:46:52;4.60;87.10
6752;DHT22;3413;47.680;9.166;2023-02-28T22:51:54;4.50;87.10
6752;DHT22;3413;47.680;9.166;2023-02-28T22:56:56;4.60;87.10
6752;DHT22;3413;47.680;9.166;2023-02-28T23:01:58;4.70;87.30
6752;DHT22;3413;47.680;9.166;2023-02-28T23:07:00;4.70;87.30
6752;DHT22;3413;47.680;9.166;2023-02-28T23:12:02;4.70;87.30
6752;DHT22;3413;47.680;9.166;2023-02-28T23:17:04;4.70;87.30
6752;DHT22;3413;47.680;9.166;2023-02-28T23:22:06;4.80;87.50
6752;DHT22;3413;47.680;9.166;2023-02-28T23:27:08;4.80;87.50
6752;DHT22;3413;47.680;9.166;2023-02-28T23:32:10;4.80;87.50
6752;DHT22;3413;47.680;9.166;2023-02-28T23:37:12;4.90;87.70
6752;DHT22;3413;47.680;9.166;2023-02-28T23:42:14;4.90;87.70
6752;DHT22;3413;47.680;9.166;2023-02-28T23:47:16;4.90;87.70
6752;DHT22;3413;47.680;9.166;2023-02-28T23:52:18;4.90;87.60
6752;DHT22;3413;47.680;9.166;2023-02-28T23:57:20;4.90;87.70
